Time;durP1;ratioP1;P1;durP2;ratioP2;P2;SDS_P1;SDS_P2;PMS_P1;PMS_P2;Temp;Humidity;BMP_temperature;BMP_pressure;BME280_temperature;BME280_humidity;BME280_pressure;Samples;Min_cycle;Max_cycle;Signal;HPM_P1;HPM_P2
2023/11/20 00:00:26;;;;;;;5.00;3.00;;;;;;;-0.97;67.10;99985.69;1774617;81;21131;-72
2023/11/20 00:02:55;;;;;;;6.55;3.52;;;;;;;-0.94;67.07;99990.44;1774554;80;21088;-71
2023/11/20 00:05:24;;;;;;;6.17;3.02;;;;;;;-0.93;67.14;99982.23;1775424;80;21111;-71
2023/11/20 00:07:53;;;;;;;5.53;3.10;;;;;;;-0.92;67.18;99983.94;1788268;80;21581;-71
2023/11/20 00:10:22;;;;;;;6.15;3.15;;;;;;;-0.95;67.29;99978.83;1788253;79;21103;-71
2023/11/20 00:12:51;;;;;;;6.92;3.22;;;;;;;-0.97;67.30;99978.11;1788396;80;21193;-71
2023/11/20 00:15:20;;;;;;;6.30;3.00;;;;;;;-0.96;67.48;99977.13;1788457;80;21107;-72
2023/11/20 00:17:50;;;;;;;6.05;3.30;;;;;;;-0.92;67.50;99981.25;1788469;80;21115;-71
2023/11/20 00:20:19;;;;;;;5.72;2.85;;;;;;;-0.91;67.47;99974.88;1788168;80;21590;-71
2023/11/20 00:22:48;;;;;;;4.62;2.92;;;;;;;-0.89;67.50;99983.66;1788434;80;21570;-71
2023/11/20 00:25:17;;;;;;;5.58;3.15;;;;;;;-0.92;67.50;99979.05;1788288;80;21123;-71
2023/11/20 00:27:46;;;;;;;5.28;3.10;;;;;;;-0.96;67.52;99980.66;1788248;80;21103;-71
2023/11/20 00:30:15;;;;;;;5.45;3.10;;;;;;;-0.97;67.62;99980.30;1788237;80;21650;-71
2023/11/20 00:32:44;;;;;;;4.65;2.87;;;;;;;-0.97;67.65;99975.42;1788358;80;21115;-72
2023/11/20 00:35:16;;;;;;;4.75;2.98;;;;;;;-0.98;67.74;99975.91;1788403;80;21213;-71
2023/11/20 00:37:46;;;;;;;6.10;3.45;;;;;;;-0.98;67.71;99969.19;1788243;80;21562;-72
2023/11/20 00:40:18;;;;;;;7.45;3.60;;;;;;;-0.99;67.78;99970.67;1788385;80;21138;-71
2023/11/20 00:42:47;;;;;;;4.97;3.25;;;;;;;-0.97;67.83;99967.36;1788327;79;21135;-72
2023/11/20 00:45:17;;;;;;;6.58;3.62;;;;;;;-0.98;67.78;99971.03;1788351;80;21099;-71
2023/11/20 00:47:46;;;;;;;6.42;4.00;;;;;;;-1.01;67.84;99964.09;1788408;80;21107;-70
2023/11/20 00:50:15;;;;;;;6.25;3.70;;;;;;;-1.00;67.90;99966.28;1788218;80;21566;-72
2023/11/20 00:52:44;;;;;;;6.40;3.50;;;;;;;-0.97;67.99;99956.59;1788376;80;21150;-70
2023/11/20 00:55:15;;;;;;;5.22;3.20;;;;;;;-0.93;67.99;99963.91;1788461;80;21166;-72
2023/11/20 00:57:44;;;;;;;5.17;3.35;;;;;;;-0.93;68.04;99955.84;1788525;80;21107;-71
2023/11/20 01:00:14;;;;;;;5.00;3.40;;;;;;;-0.97;68.05;99954.77;1788367;80;21662;-88
2023/11/20 01:02:44;;;;;;;9.03;3.75;;;;;;;-0.98;68.08;99951.72;1788491;80;21115;-71
2023/11/20 01:05:14;;;;;;;6.90;3.52;;;;;;;-0.99;68.15;99941.95;1788244;80;21181;-72
2023/11/20 01:07:42;;;;;;;7.35;3.47;;;;;;;-0.98;68.22;99946.83;1775979;80;21115;-71
2023/11/20 01:10:11;;;;;;;6.08;3.20;;;;;;;-0.95;68.29;99935.80;1774763;81;21139;-71
2023/11/20 01:12:45;;;;;;;6.78;3.25;;;;;;;-0.92;68.39;99939.56;1774428;80;21178;-74
2023/11/20 01:15:14;;;;;;;6.62;3.20;;;;;;;-0.93;68.37;99936.52;1774461;81;21590;-71
2023/11/20 01:17:43;;;;;;;6.00;3.20;;;;;;;-0.96;68.38;99940.33;1774446;81;21546;-72
2023/11/20 01:20:12;;;;;;;6.17;3.30;;;;;;;-0.94;68.47;99947.41;1774583;80;21151;-71
2023/11/20 01:22:42;;;;;;;5.47;3.40;;;;;;;-0.94;68.53;99945.58;1774481;81;21637;-72
2023/11/20 01:25:11;;;;;;;5.78;3.08;;;;;;;-0.91;68.62;99947.14;1774507;81;21108;-72
2023/11/20 01:27:40;;;;;;;6.30;3.47;;;;;;;-0.90;68.68;99943.47;1774582;81;21084;-71
2023/11/20 01:30:09;;;;;;;5.92;3.58;;;;;;;-0.87;68.78;99942.70;1774641;81;21131;-72
2023/11/20 01:32:39;;;;;;;7.37;3.83;;;;;;;-0.85;68.76;99935.34;1774681;81;21115;-71
2023/11/20 01:35:09;;;;;;;6.45;3.42;;;;;;;-0.87;68.67;99944.05;1774572;80;21591;-71
2023/11/20 01:37:38;;;;;;;6.00;3.15;;;;;;;-0.88;68.87;99938.31;1774546;81;21139;-72
2023/11/20 01:40:08;;;;;;;6.25;3.77;;;;;;;-0.85;68.92;99937.19;1774694;81;21104;-70
2023/11/20 01:42:38;;;;;;;5.47;3.25;;;;;;;-0.85;68.88;99940.72;1774771;81;21123;-70
2023/11/20 01:45:08;;;;;;;5.67;3.17;;;;;;;-0.85;68.80;99935.84;1774524;81;21595;-73
2023/11/20 01:47:37;;;;;;;7.12;3.60;;;;;;;-0.90;68.70;99934.05;1774628;81;21108;-69
2023/11/20 01:50:08;;;;;;;5.87;3.60;;;;;;;-0.93;68.59;99930.30;1774605;81;21087;-69
2023/11/20 01:52:45;;;;;;;6.30;4.00;;;;;;;-0.98;68.53;99933.39;1764164;81;21111;-70
2023/11/20 01:55:14;;;;;;;6.42;3.58;;;;;;;-1.03;68.63;99935.63;1774639;81;21154;-72
2023/11/20 01:57:45;;;;;;;5.45;3.55;;;;;;;-1.06;68.77;99930.03;1774621;81;21115;-71
2023/11/20 02:00:16;;;;;;;5.80;3.37;;;;;;;-1.03;68.89;99936.98;1764128;81;21155;-70
2023/11/20 02:02:46;;;;;;;6.55;3.72;;;;;;;-1.04;68.75;99936.12;1774529;79;21322;-70
2023/11/20 02:05:15;;;;;;;6.60;3.95;;;;;;;-1.05;68.77;99931.73;1774694;81;21103;-72
2023/11/20 02:07:44;;;;;;;8.35;3.80;;;;;;;-1.05;68.67;99926.85;1774528;80;21108;-70
2023/11/20 02:10:13;;;;;;;8.08;3.40;;;;;;;-1.05;68.80;99928.20;1774686;81;21120;-71
2023/11/20 02:12:42;;;;;;;6.62;3.50;;;;;;;-1.02;68.75;99927.92;1774572;81;21154;-70
2023/11/20 02:15:11;;;;;;;5.87;3.80;;;;;;;-1.04;68.68;99920.48;1774673;81;21556;-71
2023/11/20 02:17:40;;;;;;;6.62;3.42;;;;;;;-1.04;68.69;99924.03;1774721;81;21135;-72
2023/11/20 02:20:10;;;;;;;7.37;4.10;;;;;;;-1.03;68.68;99918.16;1774635;80;21108;-71
2023/11/20 02:22:39;;;;;;;7.30;3.55;;;;;;;-1.00;68.68;99920.08;1774622;81;21103;-71
2023/11/20 02:25:08;;;;;;;7.05;3.75;;;;;;;-0.98;68.70;99923.48;1774515;81;21120;-71
2023/11/20 02:27:55;;;;;;;7.72;3.87;;;;;;;-0.97;68.65;99912.23;1774695;81;21158;-71
2023/11/20 02:30:23;;;;;;;6.15;3.58;;;;;;;-0.98;68.61;99922.14;1774671;81;21174;-71
2023/11/20 02:32:52;;;;;;;5.83;3.50;;;;;;;-1.05;68.65;99923.67;1774596;81;21147;-71
2023/11/20 02:35:24;;;;;;;7.47;4.33;;;;;;;-1.11;68.77;99914.80;1774619;81;21121;-70
2023/11/20 02:37:53;;;;;;;6.25;3.65;;;;;;;-1.11;68.86;99913.45;1774576;81;21174;-70
2023/11/20 02:40:22;;;;;;;6.70;3.60;;;;;;;-1.08;69.02;99910.50;1774585;81;21096;-71
2023/11/20 02:42:51;;;;;;;6.17;3.58;;;;;;;-1.03;69.03;99916.32;1774731;79;21597;-70
2023/11/20 02:45:20;;;;;;;7.20;3.62;;;;;;;-1.04;68.87;99911.93;1774532;81;21108;-71
2023/11/20 02:47:48;;;;;;;9.28;3.50;;;;;;;-1.06;68.88;99913.91;1774713;81;21092;-71
2023/11/20 02:50:17;;;;;;;8.43;4.17;;;;;;;-1.04;68.99;99906.55;1774515;81;21107;-73
2023/11/20 02:52:46;;;;;;;6.58;3.50;;;;;;;-1.03;68.99;99906.91;1774417;81;21589;-72
2023/11/20 02:55:14;;;;;;;5.10;3.47;;;;;;;-1.03;69.00;99900.69;1774547;81;21551;-71
2023/11/20 02:57:43;;;;;;;7.55;3.50;;;;;;;-1.00;69.03;99899.06;1774549;81;21112;-71
2023/11/20 03:00:13;;;;;;;6.58;3.35;;;;;;;-0.97;68.98;99895.61;1774618;81;21173;-70
2023/11/20 03:02:43;;;;;;;7.75;3.50;;;;;;;-0.94;68.88;99893.14;1774600;81;21198;-70
2023/11/20 03:05:12;;;;;;;6.25;3.60;;;;;;;-0.92;68.78;99891.66;1774775;81;21150;-71
2023/11/20 03:07:42;;;;;;;7.58;3.45;;;;;;;-0.97;68.59;99884.86;1782581;80;21139;-71
2023/11/20 03:10:13;;;;;;;6.78;3.92;;;;;;;-0.97;68.80;99877.28;1788386;80;21179;-70
2023/11/20 03:12:43;;;;;;;6.67;3.47;;;;;;;-0.95;68.80;99875.31;1788351;80;21366;-71
2023/11/20 03:15:12;;;;;;;6.53;3.55;;;;;;;-0.96;68.79;99872.27;1788231;80;21227;-71
2023/11/20 03:17:41;;;;;;;5.45;3.60;;;;;;;-0.97;68.74;99863.84;1788250;80;21198;-70
2023/11/20 03:20:12;;;;;;;5.72;3.35;;;;;;;-0.99;68.73;99863.13;1788352;80;21166;-71
2023/11/20 03:22:41;;;;;;;8.65;4.10;;;;;;;-0.98;68.83;99855.42;1788251;80;21103;-70
2023/11/20 03:25:11;;;;;;;6.17;3.65;;;;;;;-0.97;68.75;99851.74;1788262;80;21111;-72
2023/11/20 03:27:40;;;;;;;6.25;3.90;;;;;;;-0.97;68.73;99852.59;1788332;80;21123;-72
2023/11/20 03:30:10;;;;;;;6.65;3.98;;;;;;;-0.98;68.74;99853.58;1788131;80;21099;-72
2023/11/20 03:32:39;;;;;;;7.17;3.95;;;;;;;-1.01;68.79;99844.94;1788474;80;21107;-70
2023/11/20 03:35:09;;;;;;;7.47;4.25;;;;;;;-1.04;68.88;99847.41;1788283;80;21115;-70
2023/11/20 03:37:37;;;;;;;6.95;3.92;;;;;;;-1.06;69.05;99852.56;1771191;80;21590;-71
2023/11/20 03:40:08;;;;;;;6.75;3.75;;;;;;;-1.05;69.16;99840.83;1788274;80;21546;-71
2023/11/20 03:42:37;;;;;;;8.13;4.03;;;;;;;-1.04;69.15;99835.31;1788369;80;21115;-69
2023/11/20 03:45:06;;;;;;;8.43;4.08;;;;;;;-1.05;69.04;99844.36;1788216;80;21515;-71
2023/11/20 03:47:35;;;;;;;8.90;3.90;;;;;;;-1.10;69.05;99843.08;1788397;80;21613;-70
2023/11/20 03:50:06;;;;;;;7.17;3.90;;;;;;;-1.15;69.20;99843.98;1788268;79;21567;-71
2023/11/20 03:52:35;;;;;;;7.25;3.75;;;;;;;-1.13;69.43;99839.31;1788215;80;21130;-71
2023/11/20 03:55:09;;;;;;;7.08;3.40;;;;;;;-1.08;69.53;99836.58;1788242;80;21111;-71
2023/11/20 03:57:38;;;;;;;8.05;3.90;;;;;;;-1.06;69.41;99841.32;1788586;80;21174;-72
2023/11/20 04:00:08;;;;;;;10.53;3.98;;;;;;;-1.09;69.60;99829.99;1788570;80;21115;-72
2023/11/20 04:02:58;;;;;;;9.13;3.83;;;;;;;-1.07;69.71;99832.90;1788233;80;21143;-71
2023/11/20 04:05:27;;;;;;;7.72;4.03;;;;;;;-1.08;69.67;99821.78;1788425;80;21162;-71
2023/11/20 04:07:56;;;;;;;7.20;3.90;;;;;;;-1.08;69.73;99825.82;1788366;80;21115;-71
2023/11/20 04:10:25;;;;;;;5.95;3.70;;;;;;;-1.08;69.77;99820.94;1788473;80;21190;-71
2023/11/20 04:12:54;;;;;;;6.87;3.62;;;;;;;-1.06;69.83;99821.65;1788280;80;21108;-70
2023/11/20 04:15:23;;;;;;;6.00;3.70;;;;;;;-1.03;69.89;99822.22;1788352;80;21570;-70
2023/11/20 04:17:51;;;;;;;8.40;3.92;;;;;;;-1.00;69.74;99821.95;1788333;80;21127;-72
2023/11/20 04:20:21;;;;;;;6.05;3.50;;;;;;;-1.00;69.76;99818.41;1788459;79;21151;-72
2023/11/20 04:22:51;;;;;;;6.40;3.90;;;;;;;-1.02;69.69;99822.58;1788542;80;21130;-71
2023/11/20 04:25:21;;;;;;;6.67;3.55;;;;;;;-1.03;69.75;99826.26;1788177;80;21103;-71
2023/11/20 04:27:52;;;;;;;6.62;3.75;;;;;;;-1.01;69.81;99824.28;1788381;80;21159;-70
2023/11/20 04:30:22;;;;;;;6.42;3.45;;;;;;;-1.00;69.87;99827.33;1788510;79;21154;-73
2023/11/20 04:32:53;;;;;;;6.78;3.50;;;;;;;-1.00;69.75;99826.48;1788437;80;21154;-70
2023/11/20 04:35:23;;;;;;;5.92;3.55;;;;;;;-1.05;69.83;99829.58;1788236;80;21126;-70
2023/11/20 04:37:51;;;;;;;6.12;3.87;;;;;;;-1.09;69.94;99830.84;1788221;80;21174;-72
2023/11/20 04:40:20;;;;;;;7.60;3.70;;;;;;;-1.09;70.08;99828.16;1788385;79;21878;-72
2023/11/20 04:42:49;;;;;;;7.92;3.50;;;;;;;-1.10;70.23;99819.73;1788499;79;21135;-70
2023/11/20 04:45:18;;;;;;;7.85;4.17;;;;;;;-1.10;70.32;99821.57;1788182;80;21604;-71
2023/11/20 04:47:49;;;;;;;5.42;3.75;;;;;;;-1.09;70.36;99824.13;1788435;80;21131;-70
2023/11/20 04:50:18;;;;;;;6.47;3.83;;;;;;;-1.08;70.45;99815.06;1788461;80;21099;-70
2023/11/20 04:52:47;;;;;;;7.92;4.03;;;;;;;-1.05;70.49;99817.97;1788268;79;21162;-71
2023/11/20 04:55:16;;;;;;;6.62;3.87;;;;;;;-1.07;70.57;99816.77;1788385;80;21134;-71
2023/11/20 04:57:44;;;;;;;7.22;3.83;;;;;;;-1.07;70.67;99814.58;1788290;80;21736;-71
2023/11/20 05:00:14;;;;;;;6.92;3.95;;;;;;;-1.07;70.82;99818.11;1788306;80;21625;-75
2023/11/20 05:02:43;;;;;;;8.65;3.90;;;;;;;-1.06;70.80;99818.47;1788386;80;21550;-70
2023/11/20 05:05:13;;;;;;;7.42;3.83;;;;;;;-1.04;70.82;99817.84;1788338;80;21154;-71
2023/11/20 05:07:42;;;;;;;8.35;5.37;;;;;;;-1.03;70.79;99810.13;1788120;80;21604;-70
2023/11/20 05:10:11;;;;;;;6.42;3.67;;;;;;;-1.01;70.85;99809.50;1788305;79;21123;-71
2023/11/20 05:12:40;;;;;;;8.33;3.83;;;;;;;-0.99;70.79;99808.86;1770972;80;21118;-71
2023/11/20 05:15:09;;;;;;;7.17;3.87;;;;;;;-0.99;70.72;99811.55;1788411;80;21171;-71
2023/11/20 05:17:38;;;;;;;5.58;3.50;;;;;;;-0.99;70.74;99812.89;1788394;80;21103;-71
2023/11/20 05:20:10;;;;;;;6.95;3.67;;;;;;;-0.97;70.67;99818.13;1788247;80;21186;-71
2023/11/20 05:22:39;;;;;;;8.18;4.00;;;;;;;-0.97;70.60;99816.79;1788218;80;21143;-71
2023/11/20 05:25:09;;;;;;;8.88;4.22;;;;;;;-0.97;70.70;99817.64;1788224;80;21095;-71
2023/11/20 05:27:38;;;;;;;6.85;3.92;;;;;;;-0.92;70.72;99819.91;1788347;80;21110;-70
2023/11/20 05:30:10;;;;;;;8.05;4.30;;;;;;;-0.88;70.73;99815.10;1788257;80;21158;-71
2023/11/20 05:32:38;;;;;;;7.75;4.35;;;;;;;-0.88;70.67;99819.98;1788217;80;21138;-73
2023/11/20 05:35:09;;;;;;;7.05;4.15;;;;;;;-0.85;70.66;99821.55;1788164;80;21129;-71
2023/11/20 05:37:39;;;;;;;6.90;3.70;;;;;;;-0.85;70.65;99825.58;1788387;80;21613;-71
2023/11/20 05:40:10;;;;;;;8.53;3.72;;;;;;;-0.86;70.62;99819.84;1788240;80;21189;-72
2023/11/20 05:42:41;;;;;;;6.67;4.12;;;;;;;-0.88;70.55;99823.17;1788401;80;21103;-71
2023/11/20 05:45:10;;;;;;;7.90;3.85;;;;;;;-0.93;70.76;99816.86;1788384;80;21120;-71
2023/11/20 05:47:39;;;;;;;9.53;4.35;;;;;;;-0.96;70.84;99815.30;1788357;79;21107;-72
2023/11/20 05:50:10;;;;;;;10.90;3.92;;;;;;;-0.96;71.01;99817.99;1788450;80;21181;-71
2023/11/20 05:52:38;;;;;;;8.55;3.95;;;;;;;-0.95;71.18;99813.47;1735465;80;21115;-72
2023/11/20 05:55:08;;;;;;;8.15;4.20;;;;;;;-0.92;71.32;99811.00;1788280;80;21119;-72
2023/11/20 05:57:38;;;;;;;10.23;4.33;;;;;;;-0.90;71.43;99815.73;1788393;80;21190;-73
2023/11/20 06:02:52;;;;;;;9.15;4.30;;;;;;;-0.87;71.69;99822.19;1695109;84;21562;-72
2023/11/20 06:05:21;;;;;;;9.75;4.35;;;;;;;-0.84;71.86;99829.97;1730170;83;21615;-72
2023/11/20 06:07:51;;;;;;;9.23;4.42;;;;;;;-0.80;71.91;99835.42;1717498;83;21114;-71
2023/11/20 06:10:20;;;;;;;9.30;4.65;;;;;;;-0.76;71.99;99835.50;1717314;83;21118;-73
2023/11/20 06:12:51;;;;;;;10.03;4.67;;;;;;;-0.71;71.91;99841.31;1717539;83;21579;-71
2023/11/20 06:15:20;;;;;;;7.75;4.20;;;;;;;-0.70;71.93;99840.33;1730315;83;21196;-72
2023/11/20 06:17:50;;;;;;;10.05;4.90;;;;;;;-0.72;71.91;99843.16;1717487;83;21122;-72
2023/11/20 06:20:19;;;;;;;7.60;4.15;;;;;;;-0.72;72.09;99843.65;1717462;83;21201;-72
2023/11/20 06:22:48;;;;;;;8.53;4.10;;;;;;;-0.70;72.19;99844.36;1717374;83;21161;-71
2023/11/20 06:25:17;;;;;;;7.37;3.75;;;;;;;-0.67;72.06;99839.55;1730502;83;21161;-72
2023/11/20 06:27:47;;;;;;;6.87;4.10;;;;;;;-0.67;71.96;99838.20;1730368;83;21576;-72
2023/11/20 06:30:16;;;;;;;9.18;4.08;;;;;;;-0.67;71.94;99834.66;1730509;83;21612;-73
2023/11/20 06:32:45;;;;;;;8.85;4.08;;;;;;;-0.68;71.89;99837.00;1730254;83;21533;-72
2023/11/20 06:35:15;;;;;;;8.23;4.00;;;;;;;-0.70;71.68;99837.14;1717623;83;21162;-72
2023/11/20 06:37:44;;;;;;;7.78;4.60;;;;;;;-0.73;71.61;99839.26;1730415;83;21260;-72
2023/11/20 06:40:13;;;;;;;12.35;5.30;;;;;;;-0.76;71.61;99844.42;1730245;83;21121;-75
2023/11/20 06:42:42;;;;;;;12.43;5.03;;;;;;;-0.76;71.69;99851.15;1717542;83;21177;-71
2023/11/20 06:45:12;;;;;;;8.53;4.87;;;;;;;-0.76;71.69;99844.92;1730451;83;21156;-72
2023/11/20 06:47:41;;;;;;;7.60;4.55;;;;;;;-0.75;71.73;99845.27;1730435;83;21901;-71
2023/11/20 06:50:11;;;;;;;9.35;4.87;;;;;;;-0.73;71.74;99841.45;1717586;83;21126;-73
2023/11/20 06:52:43;;;;;;;9.45;4.92;;;;;;;-0.71;71.59;99849.38;1717503;83;21149;-73
2023/11/20 06:55:11;;;;;;;9.88;4.60;;;;;;;-0.72;71.58;99847.69;1717734;83;21157;-73
2023/11/20 06:57:41;;;;;;;22.95;9.08;;;;;;;-0.73;71.40;99849.52;1730518;83;21137;-73
2023/11/20 07:00:14;;;;;;;10.32;4.25;;;;;;;-0.73;71.39;99850.02;1717658;83;21172;-73
2023/11/20 07:02:44;;;;;;;10.23;4.92;;;;;;;-0.73;71.34;99859.44;1717313;83;21636;-72
2023/11/20 07:05:18;;;;;;;9.20;4.58;;;;;;;-0.71;71.42;99857.45;1717523;83;21576;-72
2023/11/20 07:07:53;;;;;;;9.68;4.47;;;;;;;-0.69;71.25;99847.41;1730374;83;21117;-73
2023/11/20 07:10:27;;;;;;;11.08;4.62;;;;;;;-0.69;71.18;99848.25;1717467;83;21122;-71
2023/11/20 07:12:55;;;;;;;8.15;4.45;;;;;;;-0.66;71.26;99854.70;1717316;83;21569;-72
2023/11/20 07:15:24;;;;;;;10.38;4.83;;;;;;;-0.63;71.32;99846.03;1730364;83;21573;-73
2023/11/20 07:17:53;;;;;;;13.98;5.12;;;;;;;-0.62;71.28;99841.00;1717408;83;21110;-72
2023/11/20 07:20:22;;;;;;;9.70;4.85;;;;;;;-0.59;71.41;99848.80;1717438;82;21161;-72
2023/11/20 07:22:51;;;;;;;9.85;5.20;;;;;;;-0.53;71.44;99854.46;1730287;83;21172;-72
2023/11/20 07:25:20;;;;;;;9.43;5.08;;;;;;;-0.50;71.42;99842.08;1730589;83;21565;-72
2023/11/20 07:27:50;;;;;;;8.45;4.80;;;;;;;-0.46;71.35;99840.80;1717561;83;21130;-72
2023/11/20 07:30:20;;;;;;;8.48;4.65;;;;;;;-0.41;71.25;99835.84;1730525;83;21609;-72
2023/11/20 07:32:50;;;;;;;10.20;4.53;;;;;;;-0.37;71.18;99829.19;1730369;83;21141;-72
2023/11/20 07:35:18;;;;;;;7.62;4.20;;;;;;;-0.35;71.04;99832.58;1717352;83;21239;-72
2023/11/20 07:37:47;;;;;;;8.20;4.67;;;;;;;-0.30;70.97;99829.47;1730354;83;21565;-73
2023/11/20 07:40:18;;;;;;;10.45;5.08;;;;;;;-0.27;70.82;99825.14;1730364;83;21109;-73
2023/11/20 07:42:47;;;;;;;13.83;5.30;;;;;;;-0.21;70.72;99830.45;1730288;83;21161;-71
2023/11/20 07:45:16;;;;;;;10.32;4.83;;;;;;;-0.16;70.65;99824.14;1717567;83;21118;-72
2023/11/20 07:47:45;;;;;;;8.35;4.70;;;;;;;-0.07;70.66;99824.63;1730297;83;21110;-73
2023/11/20 07:50:15;;;;;;;10.35;5.00;;;;;;;-0.01;70.49;99824.89;1717352;83;21153;-72
2023/11/20 07:52:45;;;;;;;9.50;4.92;;;;;;;0.06;70.23;99829.24;1730281;83;21122;-72
2023/11/20 07:55:14;;;;;;;8.25;4.90;;;;;;;0.09;70.20;99822.22;1717393;83;21118;-71
2023/11/20 07:57:43;;;;;;;12.55;5.12;;;;;;;0.15;70.11;99820.29;1730444;83;21592;-74
2023/11/20 08:00:15;;;;;;;10.55;5.03;;;;;;;0.23;70.03;99824.45;1717756;83;21145;-71
2023/11/20 08:02:43;;;;;;;11.60;6.05;;;;;;;0.24;69.87;99822.11;1719169;82;21601;-72
2023/11/20 08:05:12;;;;;;;10.43;5.40;;;;;;;0.27;69.74;99825.01;1714818;83;21216;-72
2023/11/20 08:07:42;;;;;;;10.68;4.80;;;;;;;0.24;69.69;99820.76;1714874;84;21138;-72
2023/11/20 08:10:11;;;;;;;11.68;5.75;;;;;;;0.24;69.80;99818.56;1714839;84;21205;-71
2023/11/20 08:12:40;;;;;;;12.47;5.78;;;;;;;0.27;69.94;99814.23;1714844;84;21679;-72
2023/11/20 08:15:11;;;;;;;12.78;5.65;;;;;;;0.30;69.96;99811.25;1704892;84;21126;-72
2023/11/20 08:17:40;;;;;;;12.03;6.30;;;;;;;0.34;70.21;99811.80;1714859;84;21185;-72
2023/11/20 08:20:10;;;;;;;10.18;6.35;;;;;;;0.41;70.29;99805.67;1714885;83;21106;-73
2023/11/20 08:22:39;;;;;;;10.88;6.20;;;;;;;0.48;70.40;99806.78;1715008;84;21154;-72
2023/11/20 08:25:10;;;;;;;11.25;6.58;;;;;;;0.53;70.52;99804.49;1714837;82;21582;-72
2023/11/20 08:27:41;;;;;;;17.25;7.25;;;;;;;0.57;70.54;99799.16;1715075;84;21129;-72
2023/11/20 08:30:13;;;;;;;12.07;6.28;;;;;;;0.60;70.54;99793.46;1715018;84;21204;-72
2023/11/20 08:32:42;;;;;;;15.08;7.83;;;;;;;0.63;70.70;99799.06;1714893;84;21122;-72
2023/11/20 08:35:11;;;;;;;16.02;8.10;;;;;;;0.67;70.69;99798.30;1714861;83;21157;-72
2023/11/20 08:37:41;;;;;;;16.45;7.25;;;;;;;0.74;70.73;99791.30;1714890;84;21122;-72
2023/11/20 08:40:14;;;;;;;16.87;8.15;;;;;;;0.78;70.78;99794.05;1714933;83;21181;-73
2023/11/20 08:42:42;;;;;;;17.73;9.60;;;;;;;0.80;70.61;99784.81;1718390;83;21162;-72
2023/11/20 08:45:11;;;;;;;17.00;8.45;;;;;;;0.82;70.67;99785.51;1714968;84;21208;-73
2023/11/20 08:47:40;;;;;;;15.58;7.70;;;;;;;0.90;70.83;99785.60;1715053;84;21118;-73
2023/11/20 08:50:11;;;;;;;17.12;8.15;;;;;;;0.99;70.84;99787.04;1714849;83;21126;-72
2023/11/20 08:52:40;;;;;;;21.33;8.28;;;;;;;1.05;70.69;99785.94;1714893;84;21162;-73
2023/11/20 08:55:09;;;;;;;17.12;7.62;;;;;;;1.07;70.66;99795.22;1715054;83;21125;-72
2023/11/20 08:57:38;;;;;;;12.43;6.83;;;;;;;1.11;70.71;99789.88;1715228;84;21541;-72
2023/11/20 09:00:14;;;;;;;22.50;10.63;;;;;;;1.14;70.70;99784.17;1714824;84;21166;-72
2023/11/20 09:02:39;;;;;;;20.30;9.73;;;;;;;1.17;70.80;99787.91;1723271;83;21118;-71
2023/11/20 09:05:13;;;;;;;14.75;7.58;;;;;;;1.25;70.85;99782.09;1717375;83;21161;-71
2023/11/20 09:07:43;;;;;;;16.48;7.80;;;;;;;1.33;70.72;99783.22;1730234;81;21607;-72
2023/11/20 09:10:12;;;;;;;16.12;7.55;;;;;;;1.33;70.31;99784.56;1730590;81;21097;-72
2023/11/20 09:12:42;;;;;;;15.83;7.53;;;;;;;1.31;70.27;99780.66;1717431;83;21197;-72
2023/11/20 09:15:12;;;;;;;17.40;8.78;;;;;;;1.28;70.33;99771.00;1730249;83;21644;-72
2023/11/20 09:17:42;;;;;;;14.68;7.95;;;;;;;1.28;70.40;99772.34;1730344;83;21141;-72
2023/11/20 09:20:20;;;;;;;13.65;7.55;;;;;;;1.26;70.41;99769.45;1717489;82;21094;-74
2023/11/20 09:22:45;;;;;;;14.28;7.35;;;;;;;1.24;70.52;99769.61;1715660;83;21141;-73
2023/11/20 09:25:15;;;;;;;14.10;7.53;;;;;;;1.26;70.81;99760.86;1716145;83;21136;-74
2023/11/20 09:27:44;;;;;;;11.38;7.17;;;;;;;1.33;72.19;99759.77;1728945;83;21139;-72
2023/11/20 09:30:14;;;;;;;13.53;7.65;;;;;;;1.53;73.94;99761.30;1728683;83;21163;-74
2023/11/20 09:32:48;;;;;;;13.45;6.70;;;;;;;1.63;73.00;99752.27;1715122;82;21114;-73
2023/11/20 09:35:16;;;;;;;9.90;5.80;;;;;;;1.59;71.75;99753.93;1733531;82;21173;-73
2023/11/20 09:37:49;;;;;;;12.45;6.45;;;;;;;1.53;71.50;99757.75;1729467;82;21100;-73
2023/11/20 09:40:22;;;;;;;11.57;5.83;;;;;;;1.48;71.45;99755.52;1730104;81;21160;-73
2023/11/20 09:42:52;;;;;;;12.00;6.20;;;;;;;1.45;71.30;99754.48;1728689;83;21140;-74
2023/11/20 09:45:27;;;;;;;11.18;5.95;;;;;;;1.42;71.43;99753.45;1715782;83;21247;-72
2023/11/20 09:47:58;;;;;;;9.75;5.78;;;;;;;1.43;71.56;99755.14;1728770;83;21167;-74
2023/11/20 09:50:29;;;;;;;13.40;5.67;;;;;;;1.42;71.56;99748.05;1729365;83;21124;-72
2023/11/20 09:52:59;;;;;;;11.48;5.83;;;;;;;1.43;71.63;99746.20;1730367;82;21112;-73
2023/11/20 09:55:28;;;;;;;10.50;5.92;;;;;;;1.44;71.68;99742.50;1730135;82;21171;-72
2023/11/20 09:57:57;;;;;;;11.35;6.17;;;;;;;1.44;71.68;99748.74;1730397;83;21151;-72
2023/11/20 10:00:26;;;;;;;9.35;5.45;;;;;;;1.45;71.72;99745.03;1730242;82;21096;-73
2023/11/20 10:02:55;;;;;;;10.82;5.65;;;;;;;1.46;71.76;99749.44;1732927;82;21167;-75
2023/11/20 10:05:30;;;;;;;8.95;5.70;;;;;;;1.45;71.73;99745.03;1735365;83;21229;-72
2023/11/20 10:08:01;;;;;;;10.28;5.53;;;;;;;1.43;71.78;99750.25;1677189;84;21187;-73
2023/11/20 10:10:30;;;;;;;8.43;5.92;;;;;;;1.42;71.76;99748.05;1678136;84;21117;-73
2023/11/20 10:12:58;;;;;;;10.95;5.17;;;;;;;1.41;71.77;99742.80;1701515;84;21168;-73
2023/11/20 10:15:27;;;;;;;8.15;4.58;;;;;;;1.41;71.78;99746.35;1701530;84;21117;-72
2023/11/20 10:17:56;;;;;;;8.58;5.42;;;;;;;1.41;71.68;99745.50;1701656;84;21165;-72
2023/11/20 10:20:27;;;;;;;10.23;5.67;;;;;;;1.37;71.62;99743.62;1701436;84;21165;-73
2023/11/20 10:23:04;;;;;;;10.75;6.00;;;;;;;1.35;71.68;99742.08;1701588;84;21133;-72
2023/11/20 10:25:56;;;;;;;8.70;5.62;;;;;;;1.33;71.79;99740.88;1683542;84;21133;-72
2023/11/20 10:28:25;;;;;;;10.35;6.28;;;;;;;1.34;72.03;99738.53;1677681;84;21180;-72
2023/11/20 10:30:55;;;;;;;13.98;5.67;;;;;;;1.38;72.16;99738.56;1701434;84;21133;-74
2023/11/20 10:33:24;;;;;;;12.60;6.83;;;;;;;1.43;72.20;99743.50;1701662;84;21114;-72
2023/11/20 10:36:00;;;;;;;10.78;5.58;;;;;;;1.43;72.01;99741.64;1701495;84;21117;-71
2023/11/20 10:38:34;;;;;;;9.98;5.60;;;;;;;1.41;71.99;99732.86;1678700;84;21187;-72
2023/11/20 10:41:03;;;;;;;9.50;5.05;;;;;;;1.40;72.10;99741.95;1705819;83;21125;-74
2023/11/20 10:43:32;;;;;;;12.15;5.62;;;;;;;1.42;72.16;99749.90;1674784;83;21157;-73
2023/11/20 10:46:01;;;;;;;7.78;4.85;;;;;;;1.42;72.07;99749.40;1689280;85;21369;-72
2023/11/20 10:48:39;;;;;;;10.90;5.35;;;;;;;1.44;71.92;99743.34;1700210;84;21640;-74
2023/11/20 10:51:11;;;;;;;10.48;5.30;;;;;;;1.41;71.85;99742.30;1700231;83;21125;-73
2023/11/20 10:53:42;;;;;;;9.05;5.30;;;;;;;1.41;71.75;99737.41;1700245;83;21637;-75
2023/11/20 10:56:14;;;;;;;7.85;5.00;;;;;;;1.39;71.98;99743.47;1700525;83;21157;-72
2023/11/20 10:58:43;;;;;;;10.15;5.55;;;;;;;1.41;72.05;99745.00;1700360;83;21615;-73
2023/11/20 11:01:13;;;;;;;8.58;4.80;;;;;;;1.42;71.92;99741.30;1700326;83;21185;-73
2023/11/20 11:03:42;;;;;;;12.50;5.15;;;;;;;1.42;71.43;99740.45;1695507;83;21169;-72
2023/11/20 11:06:11;;;;;;;7.33;4.53;;;;;;;1.42;71.35;99744.50;1694891;83;21293;-74
2023/11/20 11:08:47;;;;;;;9.55;4.95;;;;;;;1.42;71.31;99742.65;1695001;83;21181;-72
2023/11/20 11:11:16;;;;;;;9.25;5.37;;;;;;;1.46;71.24;99744.53;1694951;83;21177;-73
2023/11/20 11:13:45;;;;;;;10.48;5.80;;;;;;;1.49;71.13;99743.72;1695007;85;21601;-72
2023/11/20 11:16:30;;;;;;;11.33;6.20;;;;;;;1.52;70.92;99744.77;1695218;84;21173;-72
2023/11/20 11:19:07;;;;;;;9.70;5.00;;;;;;;1.55;71.21;99744.45;1720930;82;21172;-73
2023/11/20 11:22:00;;;;;;;9.05;5.42;;;;;;;1.58;71.18;99741.94;1730182;83;21132;-73
2023/11/20 11:24:32;;;;;;;12.45;5.30;;;;;;;1.59;70.92;99741.78;1730094;81;21152;-73
2023/11/20 11:27:04;;;;;;;14.23;6.87;;;;;;;1.58;70.53;99731.14;1729980;81;21136;-73
2023/11/20 11:29:40;;;;;;;17.25;6.47;;;;;;;1.61;70.52;99734.03;1730068;81;21177;-72
2023/11/20 11:32:30;;;;;;;8.15;4.67;;;;;;;1.66;70.42;99729.00;1730382;83;21128;-72
2023/11/20 11:35:13;;;;;;;9.35;5.72;;;;;;;1.68;69.90;99723.79;1668015;85;21142;-73
2023/11/20 11:38:03;;;;;;;9.90;5.42;;;;;;;1.67;69.70;99719.90;1687208;85;21177;-74
2023/11/20 11:41:13;;;;;;;11.43;6.47;;;;;;;1.70;69.62;99721.78;1729353;81;21172;-72
2023/11/20 11:43:47;;;;;;;11.55;6.25;;;;;;;1.74;69.75;99719.11;1718303;83;21147;-73
2023/11/20 11:46:15;;;;;;;15.55;6.50;;;;;;;1.79;69.80;99722.18;1718194;83;21132;-72
2023/11/20 11:48:46;;;;;;;10.28;6.37;;;;;;;1.83;69.76;99718.16;1718288;83;21207;-72
2023/11/20 11:51:24;;;;;;;11.65;5.67;;;;;;;1.86;69.35;99721.89;1718293;83;21191;-72